sensor_id;sensor_type;location;lat;lon;timestamp;temperature;humidity
39315;DHT22;28703;44.412;11.918;2023-07-29T00:01:52;26.40;89.90
39315;DHT22;28703;44.412;11.918;2023-07-29T00:04:19;26.40;90.00
39315;DHT22;28703;44.412;11.918;2023-07-29T00:06:46;26.30;90.00
39315;DHT22;28703;44.412;11.918;2023-07-29T00:09:11;26.20;90.20
39315;DHT22;28703;44.412;11.918;2023-07-29T00:11:38;26.20;90.20
39315;DHT22;28703;44.412;11.918;2023-07-29T00:14:04;26.20;90.20
39315;DHT22;28703;44.412;11.918;2023-07-29T00:16:29;26.20;90.30
39315;DHT22;28703;44.412;11.918;2023-07-29T00:18:55;26.10;90.30
39315;DHT22;28703;44.412;11.918;2023-07-29T00:21:21;26.10;90.30
39315;DHT22;28703;44.412;11.918;2023-07-29T00:23:47;26.10;90.40
39315;DHT22;28703;44.412;11.918;2023-07-29T00:26:13;26.10;90.60
39315;DHT22;28703;44.412;11.918;2023-07-29T00:28:38;26.10;90.60
39315;DHT22;28703;44.412;11.918;2023-07-29T00:31:04;26.00;90.70
39315;DHT22;28703;44.412;11.918;2023-07-29T00:33:30;26.00;90.80
39315;DHT22;28703;44.412;11.918;2023-07-29T00:35:56;26.00;90.80
39315;DHT22;28703;44.412;11.918;2023-07-29T00:38:22;25.90;91.00
39315;DHT22;28703;44.412;11.918;2023-07-29T00:40:47;25.90;91.00
39315;DHT22;28703;44.412;11.918;2023-07-29T00:43:14;25.90;91.00
39315;DHT22;28703;44.412;11.918;2023-07-29T00:45:42;25.80;91.10
39315;DHT22;28703;44.412;11.918;2023-07-29T00:48:09;25.80;91.20
39315;DHT22;28703;44.412;11.918;2023-07-29T00:50:35;25.80;91.20
39315;DHT22;28703;44.412;11.918;2023-07-29T00:53:01;25.80;91.40
39315;DHT22;28703;44.412;11.918;2023-07-29T00:55:27;25.70;91.50
39315;DHT22;28703;44.412;11.918;2023-07-29T00:57:54;25.70;91.50
39315;DHT22;28703;44.412;11.918;2023-07-29T01:00:21;25.70;91.60
39315;DHT22;28703;44.412;11.918;2023-07-29T01:02:47;25.60;91.70
39315;DHT22;28703;44.412;11.918;2023-07-29T01:05:14;25.60;91.60
39315;DHT22;28703;44.412;11.918;2023-07-29T01:08:03;25.60;91.70
39315;DHT22;28703;44.412;11.918;2023-07-29T01:10:39;25.60;92.00
39315;DHT22;28703;44.412;11.918;2023-07-29T01:13:22;25.50;91.90
39315;DHT22;28703;44.412;11.918;2023-07-29T01:15:58;25.50;91.80
39315;DHT22;28703;44.412;11.918;2023-07-29T01:18:29;25.50;91.90
39315;DHT22;28703;44.412;11.918;2023-07-29T01:21:00;25.50;91.90
39315;DHT22;28703;44.412;11.918;2023-07-29T01:23:32;25.50;92.20
39315;DHT22;28703;44.412;11.918;2023-07-29T01:25:58;25.50;92.00
39315;DHT22;28703;44.412;11.918;2023-07-29T01:28:24;25.50;91.90
39315;DHT22;28703;44.412;11.918;2023-07-29T01:33:27;25.50;92.00
39315;DHT22;28703;44.412;11.918;2023-07-29T01:36:03;25.50;92.00
39315;DHT22;28703;44.412;11.918;2023-07-29T01:38:35;25.50;92.00
39315;DHT22;28703;44.412;11.918;2023-07-29T01:41:03;25.50;92.10
39315;DHT22;28703;44.412;11.918;2023-07-29T01:43:31;25.50;92.10
39315;DHT22;28703;44.412;11.918;2023-07-29T01:45:58;25.40;92.10
39315;DHT22;28703;44.412;11.918;2023-07-29T01:48:24;25.40;92.10
39315;DHT22;28703;44.412;11.918;2023-07-29T01:50:50;25.40;92.20
39315;DHT22;28703;44.412;11.918;2023-07-29T01:53:16;25.40;92.30
39315;DHT22;28703;44.412;11.918;2023-07-29T01:55:42;25.30;92.30
39315;DHT22;28703;44.412;11.918;2023-07-29T01:58:08;25.30;92.40
39315;DHT22;28703;44.412;11.918;2023-07-29T02:00:36;25.30;92.40
39315;DHT22;28703;44.412;11.918;2023-07-29T02:03:02;25.20;92.40
39315;DHT22;28703;44.412;11.918;2023-07-29T02:05:28;25.20;92.40
39315;DHT22;28703;44.412;11.918;2023-07-29T02:07:54;25.20;92.60
39315;DHT22;28703;44.412;11.918;2023-07-29T02:10:20;25.20;92.60
39315;DHT22;28703;44.412;11.918;2023-07-29T02:12:46;25.20;92.60
39315;DHT22;28703;44.412;11.918;2023-07-29T02:15:12;25.10;92.60
39315;DHT22;28703;44.412;11.918;2023-07-29T02:17:38;25.10;92.60
39315;DHT22;28703;44.412;11.918;2023-07-29T02:20:04;25.10;92.60
39315;DHT22;28703;44.412;11.918;2023-07-29T02:22:30;25.10;92.60
39315;DHT22;28703;44.412;11.918;2023-07-29T02:24:56;25.10;92.60
39315;DHT22;28703;44.412;11.918;2023-07-29T02:27:21;25.00;92.70
39315;DHT22;28703;44.412;11.918;2023-07-29T02:29:47;25.00;92.90
39315;DHT22;28703;44.412;11.918;2023-07-29T02:32:13;24.90;92.80
39315;DHT22;28703;44.412;11.918;2023-07-29T02:34:39;24.90;92.90
39315;DHT22;28703;44.412;11.918;2023-07-29T02:37:05;24.90;93.00
39315;DHT22;28703;44.412;11.918;2023-07-29T02:39:31;24.80;93.00
39315;DHT22;28703;44.412;11.918;2023-07-29T02:41:59;24.80;93.10
39315;DHT22;28703;44.412;11.918;2023-07-29T02:44:25;24.80;93.10
39315;DHT22;28703;44.412;11.918;2023-07-29T02:46:50;24.80;93.00
39315;DHT22;28703;44.412;11.918;2023-07-29T02:49:17;24.70;93.10
39315;DHT22;28703;44.412;11.918;2023-07-29T02:51:43;24.80;93.40
39315;DHT22;28703;44.412;11.918;2023-07-29T02:54:09;24.70;93.10
39315;DHT22;28703;44.412;11.918;2023-07-29T02:56:35;24.70;93.10
39315;DHT22;28703;44.412;11.918;2023-07-29T02:59:01;24.80;93.10
39315;DHT22;28703;44.412;11.918;2023-07-29T03:01:28;24.80;93.20
39315;DHT22;28703;44.412;11.918;2023-07-29T03:03:54;24.70;93.20
39315;DHT22;28703;44.412;11.918;2023-07-29T03:06:20;24.70;93.20
39315;DHT22;28703;44.412;11.918;2023-07-29T03:08:45;24.70;93.30
39315;DHT22;28703;44.412;11.918;2023-07-29T03:11:16;24.70;93.30
39315;DHT22;28703;44.412;11.918;2023-07-29T03:13:42;24.70;93.30
39315;DHT22;28703;44.412;11.918;2023-07-29T03:16:10;24.70;93.30
39315;DHT22;28703;44.412;11.918;2023-07-29T03:18:38;24.70;93.40
39315;DHT22;28703;44.412;11.918;2023-07-29T03:21:04;24.60;93.50
39315;DHT22;28703;44.412;11.918;2023-07-29T03:23:31;24.60;93.50
39315;DHT22;28703;44.412;11.918;2023-07-29T03:25:59;24.60;93.50
39315;DHT22;28703;44.412;11.918;2023-07-29T03:28:33;24.60;93.50
39315;DHT22;28703;44.412;11.918;2023-07-29T03:30:59;24.60;93.70
39315;DHT22;28703;44.412;11.918;2023-07-29T03:33:26;24.50;93.60
39315;DHT22;28703;44.412;11.918;2023-07-29T03:35:52;24.50;93.70
39315;DHT22;28703;44.412;11.918;2023-07-29T03:38:19;24.50;93.70
39315;DHT22;28703;44.412;11.918;2023-07-29T03:40:45;24.50;93.80
39315;DHT22;28703;44.412;11.918;2023-07-29T03:43:11;24.50;93.90
39315;DHT22;28703;44.412;11.918;2023-07-29T03:45:37;24.50;93.90
39315;DHT22;28703;44.412;11.918;2023-07-29T03:48:04;24.50;93.90
39315;DHT22;28703;44.412;11.918;2023-07-29T03:50:30;24.50;93.90
39315;DHT22;28703;44.412;11.918;2023-07-29T03:52:56;24.50;94.00
39315;DHT22;28703;44.412;11.918;2023-07-29T03:55:22;24.50;94.00
39315;DHT22;28703;44.412;11.918;2023-07-29T03:57:48;24.40;94.00
39315;DHT22;28703;44.412;11.918;2023-07-29T04:00:14;24.40;94.00
39315;DHT22;28703;44.412;11.918;2023-07-29T04:02:43;24.40;94.10
39315;DHT22;28703;44.412;11.918;2023-07-29T04:05:11;24.40;94.20
39315;DHT22;28703;44.412;11.918;2023-07-29T04:07:37;24.40;94.30
39315;DHT22;28703;44.412;11.918;2023-07-29T04:10:04;24.40;94.30
39315;DHT22;28703;44.412;11.918;2023-07-29T04:12:30;24.30;94.40
39315;DHT22;28703;44.412;11.918;2023-07-29T04:14:56;24.30;94.50
39315;DHT22;28703;44.412;11.918;2023-07-29T04:17:22;24.30;94.50
39315;DHT22;28703;44.412;11.918;2023-07-29T04:19:48;24.30;94.50
39315;DHT22;28703;44.412;11.918;2023-07-29T04:22:15;24.30;94.50
39315;DHT22;28703;44.412;11.918;2023-07-29T04:24:41;24.30;94.70
39315;DHT22;28703;44.412;11.918;2023-07-29T04:27:07;24.20;94.70
39315;DHT22;28703;44.412;11.918;2023-07-29T04:29:33;24.20;94.80
39315;DHT22;28703;44.412;11.918;2023-07-29T04:32:04;24.20;94.80
39315;DHT22;28703;44.412;11.918;2023-07-29T04:34:31;24.20;94.80
39315;DHT22;28703;44.412;11.918;2023-07-29T04:36:57;24.20;94.90
39315;DHT22;28703;44.412;11.918;2023-07-29T04:39:23;24.20;95.00
39315;DHT22;28703;44.412;11.918;2023-07-29T04:41:49;24.20;95.00
39315;DHT22;28703;44.412;11.918;2023-07-29T04:44:15;24.20;95.10
39315;DHT22;28703;44.412;11.918;2023-07-29T04:46:41;24.20;95.10
39315;DHT22;28703;44.412;11.918;2023-07-29T04:49:06;24.20;95.20
39315;DHT22;28703;44.412;11.918;2023-07-29T04:51:33;24.20;95.30
39315;DHT22;28703;44.412;11.918;2023-07-29T04:53:59;24.20;95.30
39315;DHT22;28703;44.412;11.918;2023-07-29T04:56:25;24.20;95.30
39315;DHT22;28703;44.412;11.918;2023-07-29T04:58:51;24.20;95.30
39315;DHT22;28703;44.412;11.918;2023-07-29T05:01:18;24.20;95.30
39315;DHT22;28703;44.412;11.918;2023-07-29T05:03:44;24.30;95.60
39315;DHT22;28703;44.412;11.918;2023-07-29T05:06:11;24.30;95.40
39315;DHT22;28703;44.412;11.918;2023-07-29T05:08:37;24.30;95.50
39315;DHT22;28703;44.412;11.918;2023-07-29T05:11:03;24.30;95.60
39315;DHT22;28703;44.412;11.918;2023-07-29T05:13:29;24.30;95.40
39315;DHT22;28703;44.412;11.918;2023-07-29T05:15:55;24.40;95.50
39315;DHT22;28703;44.412;11.918;2023-07-29T05:18:22;24.40;95.40
39315;DHT22;28703;44.412;11.918;2023-07-29T05:20:49;24.50;95.50
39315;DHT22;28703;44.412;11.918;2023-07-29T05:23:15;24.50;95.40
39315;DHT22;28703;44.412;11.918;2023-07-29T05:25:41;24.50;95.50
39315;DHT22;28703;44.412;11.918;2023-07-29T05:28:07;24.60;95.40
39315;DHT22;28703;44.412;11.918;2023-07-29T05:30:33;24.60;95.50
39315;DHT22;28703;44.412;11.918;2023-07-29T05:33:06;24.70;95.40
39315;DHT22;28703;44.412;11.918;2023-07-29T05:35:34;24.70;95.60
39315;DHT22;28703;44.412;11.918;2023-07-29T05:38:00;24.70;95.50
39315;DHT22;28703;44.412;11.918;2023-07-29T05:40:26;24.70;95.60
39315;DHT22;28703;44.412;11.918;2023-07-29T05:42:53;24.70;95.50
39315;DHT22;28703;44.412;11.918;2023-07-29T05:45:18;24.80;95.60
39315;DHT22;28703;44.412;11.918;2023-07-29T05:47:44;24.80;95.60
39315;DHT22;28703;44.412;11.918;2023-07-29T05:50:11;24.80;95.60
39315;DHT22;28703;44.412;11.918;2023-07-29T05:52:37;24.80;95.60
39315;DHT22;28703;44.412;11.918;2023-07-29T05:55:03;24.90;95.70
39315;DHT22;28703;44.412;11.918;2023-07-29T05:57:30;24.90;95.60
39315;DHT22;28703;44.412;11.918;2023-07-29T05:59:55;25.00;95.60
39315;DHT22;28703;44.412;11.918;2023-07-29T06:02:22;25.00;95.60
39315;DHT22;28703;44.412;11.918;2023-07-29T06:04:48;25.00;95.60
39315;DHT22;28703;44.412;11.918;2023-07-29T06:07:14;25.10;95.70
39315;DHT22;28703;44.412;11.918;2023-07-29T06:09:40;25.10;95.70
39315;DHT22;28703;44.412;11.918;2023-07-29T06:12:06;25.10;95.70
39315;DHT22;28703;44.412;11.918;2023-07-29T06:14:32;25.10;95.70
39315;DHT22;28703;44.412;11.918;2023-07-29T06:16:58;25.10;95.70
39315;DHT22;28703;44.412;11.918;2023-07-29T06:19:24;25.20;95.70
39315;DHT22;28703;44.412;11.918;2023-07-29T06:21:50;25.30;95.70
39315;DHT22;28703;44.412;11.918;2023-07-29T06:24:17;25.30;95.60
39315;DHT22;28703;44.412;11.918;2023-07-29T06:26:43;25.30;95.70
39315;DHT22;28703;44.412;11.918;2023-07-29T06:29:09;25.30;95.50
39315;DHT22;28703;44.412;11.918;2023-07-29T06:31:35;25.30;95.50
39315;DHT22;28703;44.412;11.918;2023-07-29T06:34:00;25.40;95.50
39315;DHT22;28703;44.412;11.918;2023-07-29T06:36:26;25.40;95.40
39315;DHT22;28703;44.412;11.918;2023-07-29T06:38:52;25.50;95.40
39315;DHT22;28703;44.412;11.918;2023-07-29T06:41:18;25.50;95.30
39315;DHT22;28703;44.412;11.918;2023-07-29T06:43:44;25.60;95.30
39315;DHT22;28703;44.412;11.918;2023-07-29T06:46:10;25.70;95.20
39315;DHT22;28703;44.412;11.918;2023-07-29T06:48:36;25.80;95.20
39315;DHT22;28703;44.412;11.918;2023-07-29T06:51:02;25.80;95.00
39315;DHT22;28703;44.412;11.918;2023-07-29T06:53:28;25.80;94.80
39315;DHT22;28703;44.412;11.918;2023-07-29T06:55:53;25.90;94.70
39315;DHT22;28703;44.412;11.918;2023-07-29T06:58:21;26.00;94.60
39315;DHT22;28703;44.412;11.918;2023-07-29T07:00:47;26.00;94.40
39315;DHT22;28703;44.412;11.918;2023-07-29T07:03:13;26.10;94.30
39315;DHT22;28703;44.412;11.918;2023-07-29T07:05:38;26.10;94.00
39315;DHT22;28703;44.412;11.918;2023-07-29T07:08:04;26.20;94.10
39315;DHT22;28703;44.412;11.918;2023-07-29T07:10:30;26.10;93.10
39315;DHT22;28703;44.412;11.918;2023-07-29T07:12:57;26.10;93.50
39315;DHT22;28703;44.412;11.918;2023-07-29T07:15:23;26.20;93.40
39315;DHT22;28703;44.412;11.918;2023-07-29T07:17:49;26.30;93.40
39315;DHT22;28703;44.412;11.918;2023-07-29T07:20:15;26.30;93.40
39315;DHT22;28703;44.412;11.918;2023-07-29T07:22:41;26.30;93.20
39315;DHT22;28703;44.412;11.918;2023-07-29T07:25:09;26.40;93.20
39315;DHT22;28703;44.412;11.918;2023-07-29T07:27:35;26.40;92.70
39315;DHT22;28703;44.412;11.918;2023-07-29T07:30:02;26.50;92.90
39315;DHT22;28703;44.412;11.918;2023-07-29T07:32:28;26.50;92.60
39315;DHT22;28703;44.412;11.918;2023-07-29T07:34:54;26.50;92.60
39315;DHT22;28703;44.412;11.918;2023-07-29T07:37:19;26.60;92.70
39315;DHT22;28703;44.412;11.918;2023-07-29T07:39:45;26.70;92.80
39315;DHT22;28703;44.412;11.918;2023-07-29T07:42:11;26.70;92.20
39315;DHT22;28703;44.412;11.918;2023-07-29T07:44:37;26.70;91.60
39315;DHT22;28703;44.412;11.918;2023-07-29T07:47:03;26.70;91.60
39315;DHT22;28703;44.412;11.918;2023-07-29T07:49:29;26.70;91.80
39315;DHT22;28703;44.412;11.918;2023-07-29T07:51:55;26.80;91.80
39315;DHT22;28703;44.412;11.918;2023-07-29T07:54:20;26.80;91.70
39315;DHT22;28703;44.412;11.918;2023-07-29T07:56:46;26.90;91.80
39315;DHT22;28703;44.412;11.918;2023-07-29T07:59:13;26.90;91.80
39315;DHT22;28703;44.412;11.918;2023-07-29T08:01:39;27.00;91.80
39315;DHT22;28703;44.412;11.918;2023-07-29T08:04:05;27.00;91.70
39315;DHT22;28703;44.412;11.918;2023-07-29T08:06:32;27.10;91.60
39315;DHT22;28703;44.412;11.918;2023-07-29T08:08:58;27.10;91.60
39315;DHT22;28703;44.412;11.918;2023-07-29T08:11:25;27.20;91.60
39315;DHT22;28703;44.412;11.918;2023-07-29T08:13:51;27.20;91.60
39315;DHT22;28703;44.412;11.918;2023-07-29T08:16:17;27.20;91.40
39315;DHT22;28703;44.412;11.918;2023-07-29T08:18:43;27.20;91.20
39315;DHT22;28703;44.412;11.918;2023-07-29T08:21:09;27.30;91.20
39315;DHT22;28703;44.412;11.918;2023-07-29T08:23:36;27.30;91.20
39315;DHT22;28703;44.412;11.918;2023-07-29T08:26:04;27.30;91.10
39315;DHT22;28703;44.412;11.918;2023-07-29T08:28:35;27.40;90.90
39315;DHT22;28703;44.412;11.918;2023-07-29T08:31:01;27.40;90.40
39315;DHT22;28703;44.412;11.918;2023-07-29T08:33:28;27.40;90.50
39315;DHT22;28703;44.412;11.918;2023-07-29T08:35:54;27.40;90.30
39315;DHT22;28703;44.412;11.918;2023-07-29T08:38:21;27.50;90.40
39315;DHT22;28703;44.412;11.918;2023-07-29T08:41:14;27.50;90.50
39315;DHT22;28703;44.412;11.918;2023-07-29T08:46:32;27.60;90.40
39315;DHT22;28703;44.412;11.918;2023-07-29T08:48:59;27.60;90.40
39315;DHT22;28703;44.412;11.918;2023-07-29T08:51:27;27.60;90.10
39315;DHT22;28703;44.412;11.918;2023-07-29T08:53:55;27.70;90.10
39315;DHT22;28703;44.412;11.918;2023-07-29T08:56:21;27.70;90.10
39315;DHT22;28703;44.412;11.918;2023-07-29T08:58:48;27.80;90.20
39315;DHT22;28703;44.412;11.918;2023-07-29T09:01:15;27.80;90.10
39315;DHT22;28703;44.412;11.918;2023-07-29T09:03:41;27.80;90.10
39315;DHT22;28703;44.412;11.918;2023-07-29T09:06:07;27.90;90.10
39315;DHT22;28703;44.412;11.918;2023-07-29T09:08:34;27.90;90.00
39315;DHT22;28703;44.412;11.918;2023-07-29T09:11:00;27.90;90.00
39315;DHT22;28703;44.412;11.918;2023-07-29T09:13:26;27.90;90.00
39315;DHT22;28703;44.412;11.918;2023-07-29T09:15:57;28.00;90.00
39315;DHT22;28703;44.412;11.918;2023-07-29T09:18:27;28.10;90.30
39315;DHT22;28703;44.412;11.918;2023-07-29T09:20:53;28.10;89.90
39315;DHT22;28703;44.412;11.918;2023-07-29T09:23:19;28.10;89.80
39315;DHT22;28703;44.412;11.918;2023-07-29T09:25:48;28.20;89.80
39315;DHT22;28703;44.412;11.918;2023-07-29T09:28:15;28.10;90.00
39315;DHT22;28703;44.412;11.918;2023-07-29T09:30:44;28.20;89.80
39315;DHT22;28703;44.412;11.918;2023-07-29T09:33:10;28.20;89.80
39315;DHT22;28703;44.412;11.918;2023-07-29T09:35:37;28.20;89.70
39315;DHT22;28703;44.412;11.918;2023-07-29T09:38:05;28.30;90.00
39315;DHT22;28703;44.412;11.918;2023-07-29T09:40:39;28.30;89.70
39315;DHT22;28703;44.412;11.918;2023-07-29T09:43:06;28.30;89.50
39315;DHT22;28703;44.412;11.918;2023-07-29T09:45:34;28.40;89.70
39315;DHT22;28703;44.412;11.918;2023-07-29T09:48:01;28.40;89.90
39315;DHT22;28703;44.412;11.918;2023-07-29T09:50:29;28.50;89.70
39315;DHT22;28703;44.412;11.918;2023-07-29T09:52:56;28.50;89.50
39315;DHT22;28703;44.412;11.918;2023-07-29T09:55:24;28.60;89.30
39315;DHT22;28703;44.412;11.918;2023-07-29T09:57:57;28.60;89.10
39315;DHT22;28703;44.412;11.918;2023-07-29T10:00:30;28.60;88.50
39315;DHT22;28703;44.412;11.918;2023-07-29T10:02:57;28.60;88.30
39315;DHT22;28703;44.412;11.918;2023-07-29T10:05:26;28.70;88.10
39315;DHT22;28703;44.412;11.918;2023-07-29T10:07:54;28.70;88.20
39315;DHT22;28703;44.412;11.918;2023-07-29T10:10:21;28.70;87.80
39315;DHT22;28703;44.412;11.918;2023-07-29T10:12:47;28.80;87.60
39315;DHT22;28703;44.412;11.918;2023-07-29T10:15:13;28.80;87.70
39315;DHT22;28703;44.412;11.918;2023-07-29T10:17:40;28.90;87.60
39315;DHT22;28703;44.412;11.918;2023-07-29T10:20:10;28.90;87.10
39315;DHT22;28703;44.412;11.918;2023-07-29T10:22:41;29.00;86.80
39315;DHT22;28703;44.412;11.918;2023-07-29T10:25:16;29.00;86.30
39315;DHT22;28703;44.412;11.918;2023-07-29T10:27:43;29.10;84.60
39315;DHT22;28703;44.412;11.918;2023-07-29T10:30:12;29.00;85.60
39315;DHT22;28703;44.412;11.918;2023-07-29T10:32:41;29.10;85.90
39315;DHT22;28703;44.412;11.918;2023-07-29T10:35:08;29.20;85.80
39315;DHT22;28703;44.412;11.918;2023-07-29T10:37:34;29.20;85.80
39315;DHT22;28703;44.412;11.918;2023-07-29T10:40:00;29.30;86.10
39315;DHT22;28703;44.412;11.918;2023-07-29T10:42:31;29.40;86.10
39315;DHT22;28703;44.412;11.918;2023-07-29T10:44:57;29.40;86.10
39315;DHT22;28703;44.412;11.918;2023-07-29T10:47:23;29.50;86.30
39315;DHT22;28703;44.412;11.918;2023-07-29T10:49:54;29.60;85.30
39315;DHT22;28703;44.412;11.918;2023-07-29T10:52:44;29.60;84.90
39315;DHT22;28703;44.412;11.918;2023-07-29T10:55:33;29.60;84.20
39315;DHT22;28703;44.412;11.918;2023-07-29T10:58:14;29.60;83.50
39315;DHT22;28703;44.412;11.918;2023-07-29T11:00:43;29.60;83.90
39315;DHT22;28703;44.412;11.918;2023-07-29T11:03:09;29.70;84.20
39315;DHT22;28703;44.412;11.918;2023-07-29T11:05:46;29.60;83.50
39315;DHT22;28703;44.412;11.918;2023-07-29T11:08:17;29.70;83.90
39315;DHT22;28703;44.412;11.918;2023-07-29T11:10:44;29.70;84.20
39315;DHT22;28703;44.412;11.918;2023-07-29T11:13:10;29.80;84.60
39315;DHT22;28703;44.412;11.918;2023-07-29T11:15:39;29.90;84.60
39315;DHT22;28703;44.412;11.918;2023-07-29T11:18:06;30.00;84.40
39315;DHT22;28703;44.412;11.918;2023-07-29T11:20:34;30.10;84.50
39315;DHT22;28703;44.412;11.918;2023-07-29T11:23:02;30.20;84.50
39315;DHT22;28703;44.412;11.918;2023-07-29T11:25:30;30.30;84.50
39315;DHT22;28703;44.412;11.918;2023-07-29T11:27:58;30.40;84.50
39315;DHT22;28703;44.412;11.918;2023-07-29T11:30:25;30.60;85.10
39315;DHT22;28703;44.412;11.918;2023-07-29T11:32:53;30.70;84.50
39315;DHT22;28703;44.412;11.918;2023-07-29T11:35:20;30.70;83.40
39315;DHT22;28703;44.412;11.918;2023-07-29T11:37:50;30.80;83.00
39315;DHT22;28703;44.412;11.918;2023-07-29T11:40:19;30.90;82.90
39315;DHT22;28703;44.412;11.918;2023-07-29T11:42:46;30.90;82.80
39315;DHT22;28703;44.412;11.918;2023-07-29T11:45:13;31.00;82.80
39315;DHT22;28703;44.412;11.918;2023-07-29T11:47:39;31.00;82.80
39315;DHT22;28703;44.412;11.918;2023-07-29T11:50:07;31.10;82.90
39315;DHT22;28703;44.412;11.918;2023-07-29T11:52:36;31.30;83.40
39315;DHT22;28703;44.412;11.918;2023-07-29T11:55:05;31.40;83.40
39315;DHT22;28703;44.412;11.918;2023-07-29T11:57:35;31.50;83.10
39315;DHT22;28703;44.412;11.918;2023-07-29T12:00:03;31.60;83.00
39315;DHT22;28703;44.412;11.918;2023-07-29T12:02:38;31.70;83.40
39315;DHT22;28703;44.412;11.918;2023-07-29T12:05:05;31.70;83.30
39315;DHT22;28703;44.412;11.918;2023-07-29T12:07:31;31.80;83.30
39315;DHT22;28703;44.412;11.918;2023-07-29T12:09:59;31.90;83.50
39315;DHT22;28703;44.412;11.918;2023-07-29T12:12:25;31.90;83.60
39315;DHT22;28703;44.412;11.918;2023-07-29T12:14:53;31.90;84.20
39315;DHT22;28703;44.412;11.918;2023-07-29T12:17:19;32.00;83.40
39315;DHT22;28703;44.412;11.918;2023-07-29T12:19:45;32.00;83.20
39315;DHT22;28703;44.412;11.918;2023-07-29T12:22:11;32.10;83.30
39315;DHT22;28703;44.412;11.918;2023-07-29T12:24:39;32.10;83.30
39315;DHT22;28703;44.412;11.918;2023-07-29T12:27:10;32.20;82.90
39315;DHT22;28703;44.412;11.918;2023-07-29T12:29:44;32.20;82.70
39315;DHT22;28703;44.412;11.918;2023-07-29T12:32:12;32.20;82.90
39315;DHT22;28703;44.412;11.918;2023-07-29T12:34:39;32.20;83.50
39315;DHT22;28703;44.412;11.918;2023-07-29T12:37:05;32.30;83.80
39315;DHT22;28703;44.412;11.918;2023-07-29T12:39:40;32.40;83.40
39315;DHT22;28703;44.412;11.918;2023-07-29T12:42:07;32.60;83.20
39315;DHT22;28703;44.412;11.918;2023-07-29T12:44:35;32.60;83.80
39315;DHT22;28703;44.412;11.918;2023-07-29T12:47:02;32.70;83.20
39315;DHT22;28703;44.412;11.918;2023-07-29T12:49:29;32.80;82.90
39315;DHT22;28703;44.412;11.918;2023-07-29T12:51:59;32.80;82.00
39315;DHT22;28703;44.412;11.918;2023-07-29T12:54:25;33.00;81.80
39315;DHT22;28703;44.412;11.918;2023-07-29T12:56:51;33.10;81.50
39315;DHT22;28703;44.412;11.918;2023-07-29T12:59:17;33.20;81.40
39315;DHT22;28703;44.412;11.918;2023-07-29T13:01:43;33.30;81.60
39315;DHT22;28703;44.412;11.918;2023-07-29T13:04:10;33.40;82.00
39315;DHT22;28703;44.412;11.918;2023-07-29T13:06:36;33.50;81.40
39315;DHT22;28703;44.412;11.918;2023-07-29T13:09:02;33.60;81.50
39315;DHT22;28703;44.412;11.918;2023-07-29T13:45:37;34.30;79.00
39315;DHT22;28703;44.412;11.918;2023-07-29T13:48:03;34.20;79.30
39315;DHT22;28703;44.412;11.918;2023-07-29T13:50:29;34.10;79.70
39315;DHT22;28703;44.412;11.918;2023-07-29T13:52:55;34.00;80.20
39315;DHT22;28703;44.412;11.918;2023-07-29T13:55:21;34.00;80.00
39315;DHT22;28703;44.412;11.918;2023-07-29T13:57:47;34.10;80.00
39315;DHT22;28703;44.412;11.918;2023-07-29T14:00:20;34.10;79.60
39315;DHT22;28703;44.412;11.918;2023-07-29T14:02:46;34.20;78.90
39315;DHT22;28703;44.412;11.918;2023-07-29T14:05:13;34.20;79.20
39315;DHT22;28703;44.412;11.918;2023-07-29T14:07:40;34.20;78.60
39315;DHT22;28703;44.412;11.918;2023-07-29T14:10:06;34.20;78.00
39315;DHT22;28703;44.412;11.918;2023-07-29T14:12:33;34.30;78.40
39315;DHT22;28703;44.412;11.918;2023-07-29T14:14:59;34.40;78.50
39315;DHT22;28703;44.412;11.918;2023-07-29T14:17:25;34.60;79.70
39315;DHT22;28703;44.412;11.918;2023-07-29T14:19:54;34.70;80.50
39315;DHT22;28703;44.412;11.918;2023-07-29T14:22:23;34.90;79.70
39315;DHT22;28703;44.412;11.918;2023-07-29T14:24:54;35.10;79.50
39315;DHT22;28703;44.412;11.918;2023-07-29T14:27:20;35.20;80.00
39315;DHT22;28703;44.412;11.918;2023-07-29T14:29:46;35.40;80.60
39315;DHT22;28703;44.412;11.918;2023-07-29T14:32:12;35.50;81.50
39315;DHT22;28703;44.412;11.918;2023-07-29T14:34:38;35.60;80.80
39315;DHT22;28703;44.412;11.918;2023-07-29T14:37:06;35.70;80.70
39315;DHT22;28703;44.412;11.918;2023-07-29T14:39:34;35.70;80.90
39315;DHT22;28703;44.412;11.918;2023-07-29T14:42:00;35.70;81.40
39315;DHT22;28703;44.412;11.918;2023-07-29T14:44:26;35.80;81.60
39315;DHT22;28703;44.412;11.918;2023-07-29T14:46:53;35.90;81.50
39315;DHT22;28703;44.412;11.918;2023-07-29T14:49:19;35.90;81.60
39315;DHT22;28703;44.412;11.918;2023-07-29T14:51:45;36.00;81.40
39315;DHT22;28703;44.412;11.918;2023-07-29T14:54:11;36.10;81.20
39315;DHT22;28703;44.412;11.918;2023-07-29T14:56:38;36.20;81.20
39315;DHT22;28703;44.412;11.918;2023-07-29T14:59:03;36.20;81.00
39315;DHT22;28703;44.412;11.918;2023-07-29T15:01:32;36.30;80.60
39315;DHT22;28703;44.412;11.918;2023-07-29T15:03:58;36.40;80.70
39315;DHT22;28703;44.412;11.918;2023-07-29T15:06:24;36.40;80.60
39315;DHT22;28703;44.412;11.918;2023-07-29T15:08:50;36.50;80.40
39315;DHT22;28703;44.412;11.918;2023-07-29T15:11:19;36.50;80.00
39315;DHT22;28703;44.412;11.918;2023-07-29T15:13:45;36.60;79.90
39315;DHT22;28703;44.412;11.918;2023-07-29T15:16:13;36.60;79.90
39315;DHT22;28703;44.412;11.918;2023-07-29T15:18:41;36.70;79.90
39315;DHT22;28703;44.412;11.918;2023-07-29T15:21:07;36.80;79.80
39315;DHT22;28703;44.412;11.918;2023-07-29T15:23:39;36.90;79.60
39315;DHT22;28703;44.412;11.918;2023-07-29T15:26:07;37.00;79.70
39315;DHT22;28703;44.412;11.918;2023-07-29T15:28:33;37.00;78.70
39315;DHT22;28703;44.412;11.918;2023-07-29T15:30:59;37.00;79.70
39315;DHT22;28703;44.412;11.918;2023-07-29T15:33:25;37.20;79.40
39315;DHT22;28703;44.412;11.918;2023-07-29T15:35:51;37.30;79.10
39315;DHT22;28703;44.412;11.918;2023-07-29T15:38:18;37.50;78.80
39315;DHT22;28703;44.412;11.918;2023-07-29T15:40:47;37.60;78.80
39315;DHT22;28703;44.412;11.918;2023-07-29T15:43:23;37.80;78.40
39315;DHT22;28703;44.412;11.918;2023-07-29T15:45:58;37.90;78.20
39315;DHT22;28703;44.412;11.918;2023-07-29T15:48:26;38.10;78.20
39315;DHT22;28703;44.412;11.918;2023-07-29T15:50:55;38.20;77.70
39315;DHT22;28703;44.412;11.918;2023-07-29T15:53:27;38.40;77.50
39315;DHT22;28703;44.412;11.918;2023-07-29T15:55:56;38.50;77.40